KLGF/LGF METAR and TAF weather

Enter ICAO airport designator
Station Type Date Time Source
KLGF METAR 2020/07/10 20:58 UTC NOAA

KLGF 102058Z AUTO 22007G15KT 10SM FEW200 SCT320 42/13 A2988 RMK AO2 SLP113 T04150132 57017 $


Station Type Date Time Source
KLGF Decoded METAR 2020/07/10 20:58 UTC NOAA

Station name not available
Jul 10, 2020 - 04:58 PM EDT / 2020.07.10 2058 UTC
Wind: from the SW (220 degrees) at 8 MPH (7 KT) gusting to 17 MPH (15 KT):0
Visibility: 10 mile(s):0
Sky conditions: partly cloudy
Temperature: 106.7 F (41.5 C)
Heat index: 105.4 F (40.8 C):1
Dew Point: 55.8 F (13.2 C)
Relative Humidity: 18%
Pressure (altimeter): 29.88 in. Hg (1011 hPa)
Pressure tendency: 0.05 inches (1.7 hPa) lower than three hours ago
ob: KLGF 102058Z AUTO 22007G15KT 10SM FEW200 SCT320 42/13 A2988 RMK AO2 SLP113 T04150132 57017
cycle: 21

Station Type Date Time Source
KLGF TAF UTC NOAA

Error!

Example: see airport list